createdAt,value
2023-01-09T00:02:24.890Z,5.90
2023-01-09T00:05:22.889Z,5.90
2023-01-09T00:08:20.883Z,5.90
2023-01-09T00:11:18.595Z,6.00
2023-01-09T00:14:17.730Z,6.00
2023-01-09T00:17:15.474Z,6.00
2023-01-09T00:20:13.456Z,6.00
2023-01-09T00:23:11.174Z,6.00
2023-01-09T00:26:13.103Z,6.10
2023-01-09T00:29:12.042Z,6.10
2023-01-09T00:32:10.928Z,6.20
2023-01-09T00:35:10.565Z,6.20
2023-01-09T00:38:08.409Z,6.30
2023-01-09T00:41:10.598Z,6.40
2023-01-09T00:44:15.428Z,6.40
2023-01-09T00:47:20.006Z,6.40
2023-01-09T00:50:25.074Z,6.40
2023-01-09T00:53:26.939Z,6.30
2023-01-09T00:56:26.290Z,6.30
2023-01-09T00:59:24.277Z,6.30
2023-01-09T01:02:22.308Z,6.20
2023-01-09T01:05:35.513Z,6.00
2023-01-09T01:08:33.637Z,5.80
2023-01-09T01:11:33.328Z,5.90
2023-01-09T01:14:31.449Z,5.90
2023-01-09T01:17:29.476Z,5.80
2023-01-09T01:20:27.450Z,5.80
2023-01-09T01:23:25.159Z,5.90
2023-01-09T01:26:23.025Z,5.80
2023-01-09T01:29:21.414Z,5.80
2023-01-09T01:32:19.499Z,5.80
2023-01-09T01:35:17.396Z,5.80
2023-01-09T01:38:15.219Z,5.80
2023-01-09T01:41:12.971Z,5.70
2023-01-09T01:44:41.339Z,5.70
2023-01-09T01:47:47.092Z,5.70
2023-01-09T01:50:51.005Z,5.60
2023-01-09T01:53:56.561Z,5.70
2023-01-09T01:56:59.041Z,5.60
2023-01-09T02:00:00.603Z,5.50
2023-01-09T02:02:59.998Z,5.50
2023-01-09T02:05:57.898Z,5.60
2023-01-09T02:08:56.497Z,5.60
2023-01-09T02:11:57.615Z,5.60
2023-01-09T02:15:04.316Z,5.60
2023-01-09T02:18:22.846Z,5.70
2023-01-09T02:21:33.672Z,5.70
2023-01-09T02:25:06.507Z,5.70
2023-01-09T02:28:44.014Z,5.60
2023-01-09T02:32:03.053Z,5.50
2023-01-09T02:35:31.624Z,5.30
2023-01-09T02:38:48.825Z,5.40
2023-01-09T02:42:06.501Z,5.40
2023-01-09T02:45:04.793Z,5.50
2023-01-09T02:48:03.537Z,5.60
2023-01-09T02:51:21.022Z,5.60
2023-01-09T02:54:43.881Z,5.60
2023-01-09T02:58:11.244Z,5.60
2023-01-09T03:01:37.798Z,5.70
2023-01-09T03:05:04.763Z,5.70
2023-01-09T03:08:09.141Z,5.70
2023-01-09T03:11:09.357Z,5.70
2023-01-09T03:14:13.418Z,5.70
2023-01-09T03:17:15.078Z,5.70
2023-01-09T03:20:15.504Z,5.70
2023-01-09T03:23:13.467Z,5.80
2023-01-09T03:26:12.393Z,5.80
2023-01-09T03:29:10.408Z,5.80
2023-01-09T03:32:08.362Z,5.80
2023-01-09T03:35:06.421Z,5.90
2023-01-09T03:38:06.132Z,5.90
2023-01-09T03:41:05.469Z,6.00
2023-01-09T03:44:03.317Z,6.00
2023-01-09T03:47:01.364Z,6.00
2023-01-09T03:49:59.295Z,5.80
2023-01-09T03:52:57.103Z,5.70
2023-01-09T03:55:57.290Z,5.80
2023-01-09T03:58:55.087Z,5.70
2023-01-09T04:01:53.157Z,5.60
2023-01-09T04:04:50.933Z,5.60
2023-01-09T04:07:49.036Z,5.60
2023-01-09T04:10:49.770Z,5.50
2023-01-09T04:13:47.943Z,5.60
2023-01-09T04:16:45.729Z,5.50
2023-01-09T04:19:43.868Z,5.60
2023-01-09T04:22:41.898Z,5.70
2023-01-09T04:25:39.770Z,5.70
2023-01-09T04:28:37.453Z,5.80
2023-01-09T04:31:35.339Z,5.90
2023-01-09T04:34:33.112Z,5.90
2023-01-09T04:37:30.953Z,5.90
2023-01-09T04:40:29.197Z,6.00
2023-01-09T04:43:27.176Z,6.10
2023-01-09T04:46:24.880Z,6.20
2023-01-09T04:49:23.619Z,6.20
2023-01-09T04:52:21.521Z,6.10
2023-01-09T04:55:19.553Z,6.10
2023-01-09T04:58:17.268Z,6.20
2023-01-09T05:01:15.227Z,6.30
2023-01-09T05:04:13.531Z,6.30
2023-01-09T05:07:11.426Z,6.60
2023-01-09T05:10:10.990Z,6.70
2023-01-09T05:13:08.944Z,6.70
2023-01-09T05:16:07.244Z,6.80
2023-01-09T05:19:05.333Z,6.90
2023-01-09T05:22:03.118Z,6.80
2023-01-09T05:25:01.013Z,6.90
2023-01-09T05:27:58.786Z,7.10
2023-01-09T05:30:56.688Z,7.30
2023-01-09T05:33:54.654Z,7.30
2023-01-09T05:36:52.830Z,7.30
2023-01-09T05:39:50.859Z,7.40
2023-01-09T05:42:49.000Z,7.80
2023-01-09T05:45:46.812Z,8.10
2023-01-09T05:48:45.435Z,8.30
2023-01-09T05:51:43.238Z,8.50
2023-01-09T05:54:41.144Z,8.50
2023-01-09T05:57:40.145Z,8.40
2023-01-09T06:00:38.012Z,8.30
2023-01-09T06:03:36.040Z,8.30
2023-01-09T06:06:33.982Z,8.20
2023-01-09T06:09:31.894Z,7.60
2023-01-09T06:12:29.774Z,6.70
2023-01-09T06:15:27.588Z,6.20
2023-01-09T06:18:27.110Z,6.30
2023-01-09T06:21:24.842Z,6.70
2023-01-09T06:24:22.720Z,7.00
2023-01-09T06:27:20.503Z,7.40
2023-01-09T06:30:19.116Z,7.60
2023-01-09T06:33:16.912Z,7.60
2023-01-09T06:36:15.449Z,7.40
2023-01-09T06:39:14.542Z,7.60
2023-01-09T06:42:12.527Z,7.50
2023-01-09T06:45:11.014Z,7.40
2023-01-09T06:48:08.885Z,7.50
2023-01-09T06:55:18.382Z,7.80
2023-01-09T06:58:16.484Z,7.80
2023-01-09T07:01:14.577Z,7.90
2023-01-09T07:04:12.408Z,7.90
2023-01-09T07:07:10.421Z,8.10
2023-01-09T07:10:09.714Z,8.20
2023-01-09T07:13:07.780Z,8.50
2023-01-09T07:16:06.045Z,8.70
2023-01-09T07:19:04.041Z,8.70
2023-01-09T07:22:01.923Z,8.70
2023-01-09T07:25:00.123Z,8.70
2023-01-09T07:27:58.043Z,8.50
2023-01-09T07:30:56.102Z,8.50
2023-01-09T07:33:54.255Z,8.60
2023-01-09T07:36:52.460Z,8.60
2023-01-09T07:39:50.328Z,8.80
2023-01-09T07:42:48.934Z,8.70
2023-01-09T07:45:47.712Z,8.90
2023-01-09T07:48:45.626Z,9.20
2023-01-09T07:51:45.004Z,9.50
2023-01-09T07:54:42.989Z,9.60
2023-01-09T07:57:40.836Z,9.70
2023-01-09T08:00:38.795Z,9.60
2023-01-09T08:03:36.800Z,9.70
2023-01-09T08:06:34.725Z,9.90
2023-01-09T08:09:32.557Z,9.90
2023-01-09T08:12:30.521Z,9.80
2023-01-09T08:15:28.662Z,9.80
2023-01-09T08:18:26.628Z,10.00
2023-01-09T08:21:25.223Z,9.90
2023-01-09T08:24:24.986Z,9.80
2023-01-09T08:27:23.043Z,9.70
2023-01-09T08:30:21.106Z,9.80
2023-01-09T08:33:19.055Z,9.70
2023-01-09T08:36:17.047Z,9.70
2023-01-09T08:39:15.303Z,9.60
2023-01-09T08:42:28.342Z,9.80
2023-01-09T08:45:41.782Z,9.90
2023-01-09T08:48:39.601Z,10.10
2023-01-09T08:51:37.342Z,10.30
2023-01-09T08:54:39.439Z,10.30
2023-01-09T08:57:37.372Z,10.30
2023-01-09T09:00:35.261Z,10.30
2023-01-09T09:03:33.152Z,10.50
2023-01-09T09:06:30.929Z,10.50
2023-01-09T09:09:28.719Z,10.60
2023-01-09T09:12:26.579Z,10.60
2023-01-09T09:15:25.699Z,10.40
2023-01-09T09:18:23.544Z,10.10
2023-01-09T09:21:21.270Z,10.00
2023-01-09T09:24:22.317Z,10.00
2023-01-09T09:27:20.141Z,9.90
2023-01-09T09:30:19.828Z,9.80
2023-01-09T09:33:17.567Z,9.50
2023-01-09T09:36:15.371Z,8.70
2023-01-09T09:39:13.144Z,8.20
2023-01-09T09:42:54.360Z,7.70
2023-01-09T09:46:05.902Z,7.10
2023-01-09T09:49:11.487Z,7.20
2023-01-09T09:52:30.065Z,7.30
2023-01-09T09:55:34.042Z,7.80
2023-01-09T09:58:39.224Z,8.10
2023-01-09T10:01:42.649Z,8.30
2023-01-09T10:04:48.992Z,8.50
2023-01-09T10:07:51.555Z,8.50
2023-01-09T10:10:54.281Z,8.60
2023-01-09T10:14:22.911Z,8.70
2023-01-09T10:17:52.475Z,8.80
2023-01-09T10:20:57.780Z,9.00
2023-01-09T10:24:14.509Z,9.10
2023-01-09T10:27:34.330Z,9.00
2023-01-09T10:30:54.009Z,9.10
2023-01-09T10:34:13.974Z,9.10
2023-01-09T10:37:19.960Z,8.90
2023-01-09T10:40:37.770Z,8.60
2023-01-09T10:43:43.035Z,8.50
2023-01-09T10:46:48.259Z,8.40
2023-01-09T10:49:48.629Z,8.30
2023-01-09T10:52:47.146Z,8.20
2023-01-09T10:55:48.295Z,8.20
2023-01-09T10:58:46.220Z,8.00
2023-01-09T11:01:44.799Z,7.90
2023-01-09T11:04:44.051Z,7.70
2023-01-09T11:07:45.389Z,7.60
2023-01-09T11:10:50.469Z,7.50
2023-01-09T11:14:07.097Z,7.40
2023-01-09T11:17:05.205Z,7.30
2023-01-09T11:20:14.466Z,7.20
2023-01-09T11:23:27.450Z,7.20
2023-01-09T11:26:25.846Z,7.10
2023-01-09T11:29:26.184Z,6.90
2023-01-09T11:32:33.531Z,6.90
2023-01-09T11:35:34.800Z,6.90
2023-01-09T11:38:46.609Z,6.80
2023-01-09T11:41:44.590Z,6.70
2023-01-09T11:44:42.456Z,6.70
2023-01-09T11:47:41.927Z,6.50
2023-01-09T11:50:39.699Z,6.30
2023-01-09T11:53:51.746Z,6.30
2023-01-09T11:56:50.981Z,6.30
2023-01-09T11:59:49.144Z,6.20
2023-01-09T12:03:07.911Z,6.20
2023-01-09T12:06:22.361Z,6.10
2023-01-09T12:09:38.296Z,6.00
2023-01-09T12:12:58.283Z,5.90
2023-01-09T12:16:12.115Z,5.80
2023-01-09T12:19:41.979Z,5.80
2023-01-09T12:22:54.903Z,5.80
2023-01-09T12:26:14.989Z,5.70
2023-01-09T12:29:25.119Z,5.70
2023-01-09T12:32:46.908Z,5.60
2023-01-09T12:35:55.669Z,5.60
2023-01-09T12:39:01.982Z,5.70
2023-01-09T12:42:15.773Z,5.60
2023-01-09T12:45:45.692Z,5.50
2023-01-09T12:49:11.483Z,5.40
2023-01-09T12:52:18.174Z,5.40
2023-01-09T12:55:21.491Z,5.40
2023-01-09T12:58:34.649Z,5.40
2023-01-09T13:01:39.320Z,5.40
2023-01-09T13:04:52.038Z,5.30
2023-01-09T13:07:59.767Z,5.20
2023-01-09T13:11:20.720Z,5.30
2023-01-09T13:14:26.504Z,5.20
2023-01-09T13:17:38.808Z,5.30
2023-01-09T13:20:45.411Z,5.20
2023-01-09T13:24:18.489Z,5.10
2023-01-09T13:27:21.260Z,5.10
2023-01-09T13:30:36.644Z,4.90
2023-01-09T13:33:40.183Z,4.90
2023-01-09T13:36:40.474Z,4.80
2023-01-09T13:39:38.377Z,4.70
2023-01-09T13:42:36.456Z,4.70
2023-01-09T13:45:37.575Z,4.60
2023-01-09T13:48:43.260Z,4.50
2023-01-09T13:52:02.254Z,4.50
2023-01-09T13:55:03.724Z,4.40
2023-01-09T13:58:19.872Z,4.30
2023-01-09T14:01:41.643Z,4.20
2023-01-09T14:04:44.100Z,4.10
2023-01-09T14:07:46.174Z,4.00
2023-01-09T14:10:52.036Z,3.80
2023-01-09T14:13:59.567Z,3.80
2023-01-09T14:16:59.696Z,3.60
2023-01-09T14:20:00.921Z,3.60
2023-01-09T14:26:23.113Z,3.50
2023-01-09T14:29:39.028Z,3.40
2023-01-09T14:32:39.438Z,3.40
2023-01-09T14:35:47.022Z,3.30
2023-01-09T14:38:49.649Z,3.30
2023-01-09T14:41:58.946Z,3.30
2023-01-09T14:45:19.870Z,3.30
2023-01-09T14:48:18.093Z,3.30
2023-01-09T14:51:17.760Z,3.10
2023-01-09T14:54:28.265Z,3.10
2023-01-09T14:57:28.562Z,3.10
2023-01-09T15:00:26.481Z,3.10
2023-01-09T15:03:26.821Z,3.20
2023-01-09T15:06:27.280Z,3.10
2023-01-09T15:09:45.299Z,3.10
2023-01-09T15:12:47.255Z,3.00
2023-01-09T15:15:48.918Z,3.00
2023-01-09T15:18:50.623Z,2.90
2023-01-09T15:22:06.043Z,2.80
2023-01-09T15:25:33.662Z,2.80
2023-01-09T15:28:40.834Z,2.90
2023-01-09T15:31:42.644Z,2.90
2023-01-09T15:34:40.724Z,2.70
2023-01-09T15:37:39.575Z,2.70
2023-01-09T15:40:38.264Z,2.60
2023-01-09T15:43:40.224Z,2.50
2023-01-09T15:46:38.448Z,2.50
2023-01-09T15:49:37.799Z,2.40
2023-01-09T15:52:35.825Z,2.40
2023-01-09T15:55:35.683Z,2.50
2023-01-09T15:58:36.707Z,2.40
2023-01-09T16:01:47.295Z,2.20
2023-01-09T16:04:46.115Z,2.00
2023-01-09T16:07:47.832Z,2.00
2023-01-09T16:10:55.311Z,2.10
2023-01-09T16:13:54.679Z,2.10
2023-01-09T16:16:53.832Z,2.20
2023-01-09T16:19:54.547Z,2.20
2023-01-09T16:22:55.093Z,2.30
2023-01-09T16:26:05.535Z,2.40
2023-01-09T16:29:34.037Z,2.40
2023-01-09T16:32:34.781Z,2.40
2023-01-09T16:35:32.883Z,2.50
2023-01-09T16:38:32.861Z,2.40
2023-01-09T16:41:46.379Z,2.40
2023-01-09T16:44:44.155Z,2.40
2023-01-09T16:47:41.979Z,2.50
2023-01-09T16:50:40.716Z,2.40
2023-01-09T16:53:38.615Z,2.40
2023-01-09T16:56:37.648Z,2.30
2023-01-09T16:59:35.506Z,2.40
2023-01-09T17:02:33.215Z,2.30
2023-01-09T17:05:31.512Z,2.30
2023-01-09T17:08:31.643Z,2.10
2023-01-09T17:11:32.309Z,2.10
2023-01-09T17:14:30.172Z,2.00
2023-01-09T17:17:27.999Z,2.10
2023-01-09T17:20:25.857Z,1.90
2023-01-09T17:23:26.327Z,1.80
2023-01-09T17:26:39.329Z,1.80
2023-01-09T17:29:36.999Z,1.60
2023-01-09T17:32:34.707Z,1.80
2023-01-09T17:35:32.530Z,1.80
2023-01-09T17:38:30.749Z,1.70
2023-01-09T17:41:30.849Z,1.80
2023-01-09T17:44:28.757Z,1.90
2023-01-09T17:47:26.587Z,2.00
2023-01-09T17:50:28.854Z,2.10
2023-01-09T17:53:27.001Z,2.20
2023-01-09T17:56:29.870Z,2.20
2023-01-09T17:59:28.075Z,2.20
2023-01-09T18:02:25.877Z,2.30
2023-01-09T18:05:24.938Z,2.40
2023-01-09T18:08:22.643Z,2.40
2023-01-09T18:11:22.255Z,2.50
2023-01-09T18:14:20.013Z,2.50
2023-01-09T18:17:17.875Z,2.50
2023-01-09T18:20:15.677Z,2.50
2023-01-09T18:23:14.030Z,2.50
2023-01-09T18:26:20.325Z,2.40
2023-01-09T18:29:20.592Z,2.50
2023-01-09T18:32:18.337Z,2.50
2023-01-09T18:35:16.964Z,2.60
2023-01-09T18:38:15.987Z,2.50
2023-01-09T18:41:14.522Z,2.50
2023-01-09T18:44:12.382Z,2.50
2023-01-09T18:47:10.232Z,2.40
2023-01-09T18:50:08.384Z,2.40
2023-01-09T18:53:06.850Z,2.50
2023-01-09T18:56:05.606Z,2.60
2023-01-09T18:59:03.534Z,2.60
2023-01-09T19:02:02.300Z,2.50
2023-01-09T19:05:00.277Z,2.50
2023-01-09T19:07:58.057Z,2.50
2023-01-09T19:10:55.948Z,2.40
2023-01-09T19:13:53.752Z,2.50
2023-01-09T19:16:51.644Z,2.50
2023-01-09T19:19:49.745Z,2.50
2023-01-09T19:22:47.517Z,2.50
2023-01-09T19:25:45.385Z,2.60
2023-01-09T19:28:45.906Z,2.40
2023-01-09T19:31:45.312Z,2.40
2023-01-09T19:34:43.175Z,2.40
2023-01-09T19:37:40.969Z,2.30
2023-01-09T19:40:38.887Z,2.30
2023-01-09T19:43:39.341Z,2.40
2023-01-09T19:46:38.338Z,2.40
2023-01-09T19:49:36.066Z,2.30
2023-01-09T19:52:34.241Z,2.30
2023-01-09T19:55:32.079Z,2.30
2023-01-09T19:58:32.775Z,2.40
2023-01-09T20:01:33.054Z,2.40
2023-01-09T20:07:56.203Z,2.30
2023-01-09T20:10:54.049Z,2.30
2023-01-09T20:13:52.546Z,2.30
2023-01-09T20:16:52.829Z,2.30
2023-01-09T20:19:50.674Z,2.40
2023-01-09T20:22:48.458Z,2.30
2023-01-09T20:25:46.535Z,2.20
2023-01-09T20:28:44.999Z,2.20
2023-01-09T20:31:43.313Z,2.10
2023-01-09T20:34:43.013Z,2.10
2023-01-09T20:37:40.894Z,2.20
2023-01-09T20:40:39.832Z,2.20
2023-01-09T20:43:38.320Z,2.30
2023-01-09T20:46:39.049Z,2.30
2023-01-09T20:49:36.918Z,2.30
2023-01-09T20:52:34.624Z,2.40
2023-01-09T20:55:32.448Z,2.40
2023-01-09T20:58:30.229Z,2.40
2023-01-09T21:01:28.712Z,2.50
2023-01-09T21:04:26.536Z,2.50
2023-01-09T21:07:25.547Z,2.60
2023-01-09T21:10:23.259Z,2.60
2023-01-09T21:13:21.075Z,2.50
2023-01-09T21:16:24.786Z,2.50
2023-01-09T21:19:23.187Z,2.40
2023-01-09T21:22:21.143Z,2.40
2023-01-09T21:25:19.065Z,2.30
2023-01-09T21:28:18.931Z,2.40
2023-01-09T21:31:19.930Z,2.30
2023-01-09T21:34:20.977Z,2.30
2023-01-09T21:37:18.831Z,2.40
2023-01-09T21:40:18.265Z,2.40
2023-01-09T21:43:41.188Z,2.50
2023-01-09T21:46:54.631Z,2.60
2023-01-09T21:49:52.558Z,2.40
2023-01-09T21:52:50.415Z,2.40
2023-01-09T21:55:48.308Z,2.40
2023-01-09T21:58:46.208Z,2.40
2023-01-09T22:01:44.729Z,2.30
2023-01-09T22:04:43.529Z,2.40
2023-01-09T22:07:41.410Z,2.30
2023-01-09T22:10:39.312Z,2.40
2023-01-09T22:13:37.186Z,2.50
2023-01-09T22:16:35.102Z,2.70
2023-01-09T22:19:33.234Z,2.60
2023-01-09T22:22:31.192Z,2.50
2023-01-09T22:25:29.072Z,2.60
2023-01-09T22:28:26.892Z,2.60
2023-01-09T22:31:26.363Z,2.60
2023-01-09T22:34:26.326Z,2.60
2023-01-09T22:37:24.109Z,2.70
2023-01-09T22:40:21.825Z,2.80
2023-01-09T22:43:19.697Z,2.90
2023-01-09T22:46:17.640Z,2.90
2023-01-09T22:49:15.515Z,2.80
2023-01-09T22:52:13.174Z,2.60
2023-01-09T22:55:11.952Z,2.50
2023-01-09T22:58:09.615Z,2.30
2023-01-09T23:01:10.261Z,2.30
2023-01-09T23:04:10.300Z,2.30
2023-01-09T23:07:08.275Z,2.30
2023-01-09T23:10:06.605Z,2.30
2023-01-09T23:13:04.537Z,2.50
2023-01-09T23:16:02.397Z,2.40
2023-01-09T23:19:00.358Z,2.40
2023-01-09T23:22:00.001Z,2.40
2023-01-09T23:24:57.859Z,2.40
2023-01-09T23:27:55.811Z,2.40
2023-01-09T23:30:54.148Z,2.40
2023-01-09T23:33:52.106Z,2.40
2023-01-09T23:36:50.295Z,2.50
2023-01-09T23:39:48.032Z,2.50
2023-01-09T23:43:01.270Z,2.40
2023-01-09T23:45:59.011Z,2.40
2023-01-09T23:48:56.888Z,2.30
2023-01-09T23:51:54.626Z,2.40
2023-01-09T23:54:52.523Z,2.30
2023-01-09T23:57:54.800Z,2.20
